sensor_id;sensor_type;location;lat;lon;timestamp;pressure;altitude;pressure_sealevel;temperature;humidity
5574;BME280;2563;52.242;7.956;2023-12-22T00:00:08;98578.72;;;5.28;100.00
5574;BME280;2563;52.242;7.956;2023-12-22T00:02:33;98559.38;;;5.22;100.00
5574;BME280;2563;52.242;7.956;2023-12-22T00:04:58;98543.66;;;5.35;100.00
5574;BME280;2563;52.242;7.956;2023-12-22T00:07:24;98545.19;;;5.39;100.00
5574;BME280;2563;52.242;7.956;2023-12-22T00:09:49;98539.16;;;5.41;100.00
5574;BME280;2563;52.242;7.956;2023-12-22T00:12:15;98555.78;;;5.51;100.00
5574;BME280;2563;52.242;7.956;2023-12-22T00:14:40;98574.31;;;5.57;100.00
5574;BME280;2563;52.242;7.956;2023-12-22T00:17:06;98585.22;;;5.60;100.00
5574;BME280;2563;52.242;7.956;2023-12-22T00:19:31;98601.22;;;5.42;100.00
5574;BME280;2563;52.242;7.956;2023-12-22T00:21:57;98601.28;;;5.39;100.00
5574;BME280;2563;52.242;7.956;2023-12-22T00:24:23;98587.69;;;5.40;100.00
5574;BME280;2563;52.242;7.956;2023-12-22T00:26:48;98609.53;;;5.22;100.00
5574;BME280;2563;52.242;7.956;2023-12-22T00:29:14;98610.38;;;5.22;100.00
5574;BME280;2563;52.242;7.956;2023-12-22T00:31:39;98608.69;;;5.21;100.00
5574;BME280;2563;52.242;7.956;2023-12-22T00:34:04;98614.47;;;5.26;100.00
5574;BME280;2563;52.242;7.956;2023-12-22T00:36:30;98618.91;;;5.21;100.00
5574;BME280;2563;52.242;7.956;2023-12-22T00:38:55;98629.22;;;5.18;100.00
5574;BME280;2563;52.242;7.956;2023-12-22T00:41:21;98612.34;;;5.14;100.00
5574;BME280;2563;52.242;7.956;2023-12-22T00:43:46;98613.00;;;5.19;100.00
5574;BME280;2563;52.242;7.956;2023-12-22T00:46:12;98623.06;;;5.24;100.00
5574;BME280;2563;52.242;7.956;2023-12-22T00:48:38;98636.44;;;5.30;100.00
5574;BME280;2563;52.242;7.956;2023-12-22T00:51:05;98627.97;;;5.30;100.00
5574;BME280;2563;52.242;7.956;2023-12-22T00:53:31;98621.69;;;5.39;100.00
5574;BME280;2563;52.242;7.956;2023-12-22T00:55:56;98624.22;;;5.40;100.00
5574;BME280;2563;52.242;7.956;2023-12-22T00:58:22;98613.59;;;5.52;100.00
5574;BME280;2563;52.242;7.956;2023-12-22T01:00:47;98634.94;;;5.50;100.00
5574;BME280;2563;52.242;7.956;2023-12-22T01:03:12;98656.81;;;5.57;100.00
5574;BME280;2563;52.242;7.956;2023-12-22T01:05:38;98717.06;;;5.61;100.00
5574;BME280;2563;52.242;7.956;2023-12-22T01:08:04;98723.66;;;5.42;100.00
5574;BME280;2563;52.242;7.956;2023-12-22T01:10:29;98715.66;;;4.71;100.00
5574;BME280;2563;52.242;7.956;2023-12-22T01:12:54;98694.34;;;4.45;100.00
5574;BME280;2563;52.242;7.956;2023-12-22T01:15:20;98665.25;;;4.24;100.00
5574;BME280;2563;52.242;7.956;2023-12-22T01:17:45;98678.41;;;4.39;100.00
5574;BME280;2563;52.242;7.956;2023-12-22T01:20:10;98655.53;;;4.37;100.00
5574;BME280;2563;52.242;7.956;2023-12-22T01:22:36;98643.38;;;4.74;100.00
5574;BME280;2563;52.242;7.956;2023-12-22T01:25:04;98642.16;;;4.59;100.00
5574;BME280;2563;52.242;7.956;2023-12-22T01:27:30;98638.13;;;4.52;100.00
5574;BME280;2563;52.242;7.956;2023-12-22T01:29:56;98647.06;;;4.65;100.00
5574;BME280;2563;52.242;7.956;2023-12-22T01:32:21;98657.28;;;4.63;100.00
5574;BME280;2563;52.242;7.956;2023-12-22T01:34:46;98659.59;;;4.71;100.00
5574;BME280;2563;52.242;7.956;2023-12-22T01:37:12;98662.22;;;4.69;100.00
5574;BME280;2563;52.242;7.956;2023-12-22T01:39:37;98673.03;;;4.76;100.00
5574;BME280;2563;52.242;7.956;2023-12-22T01:42:03;98659.13;;;4.86;100.00
5574;BME280;2563;52.242;7.956;2023-12-22T01:44:29;98680.91;;;4.97;100.00
5574;BME280;2563;52.242;7.956;2023-12-22T01:46:54;98690.28;;;4.96;100.00
5574;BME280;2563;52.242;7.956;2023-12-22T01:49:21;98694.75;;;4.88;100.00
5574;BME280;2563;52.242;7.956;2023-12-22T01:51:47;98710.97;;;4.85;100.00
5574;BME280;2563;52.242;7.956;2023-12-22T01:54:14;98693.59;;;4.98;100.00
5574;BME280;2563;52.242;7.956;2023-12-22T01:56:41;98700.72;;;5.15;100.00
5574;BME280;2563;52.242;7.956;2023-12-22T01:59:07;98710.31;;;5.07;100.00
5574;BME280;2563;52.242;7.956;2023-12-22T02:01:33;98711.34;;;5.01;100.00
5574;BME280;2563;52.242;7.956;2023-12-22T02:03:59;98705.19;;;4.80;100.00
5574;BME280;2563;52.242;7.956;2023-12-22T02:06:24;98713.19;;;4.69;100.00
5574;BME280;2563;52.242;7.956;2023-12-22T02:08:50;98714.25;;;4.62;100.00
5574;BME280;2563;52.242;7.956;2023-12-22T02:11:16;98700.63;;;4.62;100.00
5574;BME280;2563;52.242;7.956;2023-12-22T02:13:42;98724.19;;;4.70;100.00
5574;BME280;2563;52.242;7.956;2023-12-22T02:16:17;98698.44;;;4.51;100.00
5574;BME280;2563;52.242;7.956;2023-12-22T02:18:47;98698.13;;;4.32;100.00
5574;BME280;2563;52.242;7.956;2023-12-22T02:21:16;98670.44;;;4.21;100.00
5574;BME280;2563;52.242;7.956;2023-12-22T02:23:41;98659.47;;;4.19;100.00
5574;BME280;2563;52.242;7.956;2023-12-22T02:26:12;98638.75;;;4.30;100.00
5574;BME280;2563;52.242;7.956;2023-12-22T02:28:41;98622.88;;;4.22;100.00
5574;BME280;2563;52.242;7.956;2023-12-22T02:33:57;98585.50;;;4.51;100.00
5574;BME280;2563;52.242;7.956;2023-12-22T02:36:25;98572.72;;;4.52;100.00
5574;BME280;2563;52.242;7.956;2023-12-22T02:38:51;98563.28;;;4.56;100.00
5574;BME280;2563;52.242;7.956;2023-12-22T02:41:19;98571.50;;;4.64;100.00
5574;BME280;2563;52.242;7.956;2023-12-22T02:43:44;98561.69;;;4.78;100.00
5574;BME280;2563;52.242;7.956;2023-12-22T02:46:14;98571.50;;;4.64;100.00
5574;BME280;2563;52.242;7.956;2023-12-22T02:48:40;98562.84;;;4.69;100.00
5574;BME280;2563;52.242;7.956;2023-12-22T02:51:05;98593.75;;;4.59;100.00
5574;BME280;2563;52.242;7.956;2023-12-22T02:53:31;98606.75;;;4.50;100.00
5574;BME280;2563;52.242;7.956;2023-12-22T02:55:56;98611.59;;;4.57;100.00
5574;BME280;2563;52.242;7.956;2023-12-22T02:58:21;98628.69;;;4.55;100.00
5574;BME280;2563;52.242;7.956;2023-12-22T03:00:47;98627.81;;;4.55;100.00
5574;BME280;2563;52.242;7.956;2023-12-22T03:03:12;98658.94;;;4.64;100.00
5574;BME280;2563;52.242;7.956;2023-12-22T03:05:38;98656.56;;;4.60;100.00
5574;BME280;2563;52.242;7.956;2023-12-22T03:08:04;98654.91;;;4.57;100.00
5574;BME280;2563;52.242;7.956;2023-12-22T03:10:29;98677.53;;;4.68;100.00
5574;BME280;2563;52.242;7.956;2023-12-22T03:12:55;98686.63;;;4.77;100.00
5574;BME280;2563;52.242;7.956;2023-12-22T03:15:20;98667.00;;;4.79;100.00
5574;BME280;2563;52.242;7.956;2023-12-22T03:17:46;98678.06;;;4.79;100.00
5574;BME280;2563;52.242;7.956;2023-12-22T03:20:11;98670.69;;;4.70;100.00
5574;BME280;2563;52.242;7.956;2023-12-22T03:22:36;98659.31;;;4.80;100.00
5574;BME280;2563;52.242;7.956;2023-12-22T03:25:02;98667.75;;;4.82;100.00
5574;BME280;2563;52.242;7.956;2023-12-22T03:27:27;98680.47;;;4.84;100.00
5574;BME280;2563;52.242;7.956;2023-12-22T03:29:53;98677.84;;;4.85;100.00
5574;BME280;2563;52.242;7.956;2023-12-22T03:32:20;98660.63;;;4.94;100.00
5574;BME280;2563;52.242;7.956;2023-12-22T03:34:46;98656.19;;;4.99;100.00
5574;BME280;2563;52.242;7.956;2023-12-22T03:37:11;98658.78;;;4.97;100.00
5574;BME280;2563;52.242;7.956;2023-12-22T03:39:36;98655.50;;;4.94;100.00
5574;BME280;2563;52.242;7.956;2023-12-22T03:42:02;98668.28;;;4.92;100.00
5574;BME280;2563;52.242;7.956;2023-12-22T03:44:28;98667.56;;;4.88;100.00
5574;BME280;2563;52.242;7.956;2023-12-22T03:46:53;98677.06;;;4.83;100.00
5574;BME280;2563;52.242;7.956;2023-12-22T03:49:18;98671.19;;;4.81;100.00
5574;BME280;2563;52.242;7.956;2023-12-22T03:51:44;98673.78;;;4.80;100.00
5574;BME280;2563;52.242;7.956;2023-12-22T03:54:10;98647.47;;;4.79;100.00
5574;BME280;2563;52.242;7.956;2023-12-22T03:56:35;98636.63;;;4.73;100.00
5574;BME280;2563;52.242;7.956;2023-12-22T03:59:01;98627.50;;;4.65;100.00
5574;BME280;2563;52.242;7.956;2023-12-22T04:01:26;98608.84;;;4.65;100.00
5574;BME280;2563;52.242;7.956;2023-12-22T04:03:51;98571.50;;;4.64;100.00
5574;BME280;2563;52.242;7.956;2023-12-22T04:06:17;98566.41;;;4.64;100.00
5574;BME280;2563;52.242;7.956;2023-12-22T04:08:42;98567.69;;;4.77;100.00
5574;BME280;2563;52.242;7.956;2023-12-22T04:11:07;98565.91;;;4.79;100.00
5574;BME280;2563;52.242;7.956;2023-12-22T04:13:33;98548.28;;;4.73;100.00
5574;BME280;2563;52.242;7.956;2023-12-22T04:15:58;98548.69;;;4.86;100.00
5574;BME280;2563;52.242;7.956;2023-12-22T04:18:23;98552.91;;;4.87;100.00
5574;BME280;2563;52.242;7.956;2023-12-22T04:20:48;98567.38;;;4.86;100.00
5574;BME280;2563;52.242;7.956;2023-12-22T04:23:18;98543.81;;;4.80;100.00
5574;BME280;2563;52.242;7.956;2023-12-22T04:25:44;98530.41;;;4.75;100.00
5574;BME280;2563;52.242;7.956;2023-12-22T04:28:09;98528.78;;;4.72;100.00
5574;BME280;2563;52.242;7.956;2023-12-22T04:30:35;98533.78;;;4.75;100.00
5574;BME280;2563;52.242;7.956;2023-12-22T04:33:00;98531.06;;;4.80;100.00
5574;BME280;2563;52.242;7.956;2023-12-22T04:35:26;98525.19;;;4.78;100.00
5574;BME280;2563;52.242;7.956;2023-12-22T04:37:51;98541.56;;;4.71;100.00
5574;BME280;2563;52.242;7.956;2023-12-22T04:40:16;98550.94;;;4.70;100.00
5574;BME280;2563;52.242;7.956;2023-12-22T04:42:42;98540.63;;;4.73;100.00
5574;BME280;2563;52.242;7.956;2023-12-22T04:45:07;98538.75;;;4.78;100.00
5574;BME280;2563;52.242;7.956;2023-12-22T04:47:32;98545.72;;;4.73;100.00
5574;BME280;2563;52.242;7.956;2023-12-22T04:49:58;98544.75;;;4.77;100.00
5574;BME280;2563;52.242;7.956;2023-12-22T04:52:23;98549.63;;;4.83;100.00
5574;BME280;2563;52.242;7.956;2023-12-22T04:54:48;98552.09;;;4.86;100.00
5574;BME280;2563;52.242;7.956;2023-12-22T04:57:14;98545.31;;;4.85;100.00
5574;BME280;2563;52.242;7.956;2023-12-22T04:59:39;98552.16;;;4.83;100.00
5574;BME280;2563;52.242;7.956;2023-12-22T05:02:04;98556.56;;;4.80;100.00
5574;BME280;2563;52.242;7.956;2023-12-22T05:04:30;98547.34;;;4.76;100.00
5574;BME280;2563;52.242;7.956;2023-12-22T05:06:55;98551.59;;;4.75;100.00
5574;BME280;2563;52.242;7.956;2023-12-22T05:09:21;98566.94;;;4.74;100.00
5574;BME280;2563;52.242;7.956;2023-12-22T05:11:46;98576.31;;;4.73;100.00
5574;BME280;2563;52.242;7.956;2023-12-22T05:14:11;98586.59;;;4.70;100.00
5574;BME280;2563;52.242;7.956;2023-12-22T05:16:37;98599.38;;;4.68;100.00
5574;BME280;2563;52.242;7.956;2023-12-22T05:19:02;98610.41;;;4.69;100.00
5574;BME280;2563;52.242;7.956;2023-12-22T05:21:27;98625.91;;;4.63;100.00
5574;BME280;2563;52.242;7.956;2023-12-22T05:23:53;98622.28;;;4.70;100.00
5574;BME280;2563;52.242;7.956;2023-12-22T05:26:22;98625.00;;;4.64;100.00
5574;BME280;2563;52.242;7.956;2023-12-22T05:28:49;98633.13;;;4.48;100.00
5574;BME280;2563;52.242;7.956;2023-12-22T05:31:16;98646.56;;;4.54;100.00
5574;BME280;2563;52.242;7.956;2023-12-22T05:33:41;98648.56;;;4.42;100.00
5574;BME280;2563;52.242;7.956;2023-12-22T05:36:06;98659.56;;;4.44;100.00
5574;BME280;2563;52.242;7.956;2023-12-22T05:38:32;98661.56;;;4.33;100.00
5574;BME280;2563;52.242;7.956;2023-12-22T05:40:57;98656.72;;;4.25;100.00
5574;BME280;2563;52.242;7.956;2023-12-22T05:43:23;98658.53;;;4.22;100.00
5574;BME280;2563;52.242;7.956;2023-12-22T05:45:48;98647.75;;;4.42;100.00
5574;BME280;2563;52.242;7.956;2023-12-22T05:48:13;98663.88;;;4.42;100.00
5574;BME280;2563;52.242;7.956;2023-12-22T05:50:39;98650.06;;;4.50;100.00
5574;BME280;2563;52.242;7.956;2023-12-22T05:53:04;98647.75;;;4.70;100.00
5574;BME280;2563;52.242;7.956;2023-12-22T05:55:29;98651.53;;;4.57;100.00
5574;BME280;2563;52.242;7.956;2023-12-22T05:57:55;98649.69;;;4.62;100.00
5574;BME280;2563;52.242;7.956;2023-12-22T06:00:21;98647.25;;;4.59;100.00
5574;BME280;2563;52.242;7.956;2023-12-22T06:02:46;98654.59;;;4.68;100.00
5574;BME280;2563;52.242;7.956;2023-12-22T06:05:11;98652.75;;;4.73;100.00
5574;BME280;2563;52.242;7.956;2023-12-22T06:07:37;98659.41;;;4.77;100.00
5574;BME280;2563;52.242;7.956;2023-12-22T06:10:02;98666.00;;;4.84;100.00
5574;BME280;2563;52.242;7.956;2023-12-22T06:12:28;98652.91;;;4.95;100.00
5574;BME280;2563;52.242;7.956;2023-12-22T06:14:53;98651.00;;;5.02;100.00
5574;BME280;2563;52.242;7.956;2023-12-22T06:17:19;98653.81;;;5.19;100.00
5574;BME280;2563;52.242;7.956;2023-12-22T06:19:44;98637.66;;;5.20;100.00
5574;BME280;2563;52.242;7.956;2023-12-22T06:22:09;98648.56;;;5.24;100.00
5574;BME280;2563;52.242;7.956;2023-12-22T06:24:35;98656.84;;;5.30;100.00
5574;BME280;2563;52.242;7.956;2023-12-22T06:27:01;98677.28;;;5.29;100.00
5574;BME280;2563;52.242;7.956;2023-12-22T06:29:26;98678.09;;;5.31;100.00
5574;BME280;2563;52.242;7.956;2023-12-22T06:31:52;98689.91;;;5.33;100.00
5574;BME280;2563;52.242;7.956;2023-12-22T06:34:17;98692.41;;;5.35;100.00
5574;BME280;2563;52.242;7.956;2023-12-22T06:36:43;98688.94;;;5.38;100.00
5574;BME280;2563;52.242;7.956;2023-12-22T06:39:09;98698.84;;;5.47;100.00
5574;BME280;2563;52.242;7.956;2023-12-22T06:41:34;98713.25;;;5.48;100.00
5574;BME280;2563;52.242;7.956;2023-12-22T06:44:00;98738.81;;;5.46;100.00
5574;BME280;2563;52.242;7.956;2023-12-22T06:46:26;98744.94;;;5.41;100.00
5574;BME280;2563;52.242;7.956;2023-12-22T06:48:52;98741.09;;;5.56;100.00
5574;BME280;2563;52.242;7.956;2023-12-22T06:51:25;98759.84;;;5.53;100.00
5574;BME280;2563;52.242;7.956;2023-12-22T06:53:56;98745.25;;;5.58;100.00
5574;BME280;2563;52.242;7.956;2023-12-22T06:56:24;98763.88;;;5.60;100.00
5574;BME280;2563;52.242;7.956;2023-12-22T06:58:51;98771.00;;;5.50;100.00
5574;BME280;2563;52.242;7.956;2023-12-22T07:01:24;98762.63;;;5.47;100.00
5574;BME280;2563;52.242;7.956;2023-12-22T07:03:50;98766.63;;;5.54;100.00
5574;BME280;2563;52.242;7.956;2023-12-22T07:06:19;98772.31;;;5.62;100.00
5574;BME280;2563;52.242;7.956;2023-12-22T07:11:49;98779.38;;;5.54;100.00
5574;BME280;2563;52.242;7.956;2023-12-22T07:14:15;98782.88;;;5.51;100.00
5574;BME280;2563;52.242;7.956;2023-12-22T07:16:41;98790.28;;;5.59;100.00
5574;BME280;2563;52.242;7.956;2023-12-22T07:19:07;98785.84;;;5.64;100.00
5574;BME280;2563;52.242;7.956;2023-12-22T07:21:33;98789.38;;;5.60;100.00
5574;BME280;2563;52.242;7.956;2023-12-22T07:23:58;98793.63;;;5.61;100.00
5574;BME280;2563;52.242;7.956;2023-12-22T07:26:24;98792.53;;;5.68;100.00
5574;BME280;2563;52.242;7.956;2023-12-22T07:28:52;98799.81;;;5.54;100.00
5574;BME280;2563;52.242;7.956;2023-12-22T07:31:17;98802.94;;;5.62;100.00
5574;BME280;2563;52.242;7.956;2023-12-22T07:33:43;98797.00;;;5.62;100.00
5574;BME280;2563;52.242;7.956;2023-12-22T07:36:08;98800.34;;;5.64;100.00
5574;BME280;2563;52.242;7.956;2023-12-22T07:38:34;98797.91;;;5.61;100.00
5574;BME280;2563;52.242;7.956;2023-12-22T07:40:59;98808.31;;;5.53;100.00
5574;BME280;2563;52.242;7.956;2023-12-22T07:43:25;98825.34;;;5.52;100.00
5574;BME280;2563;52.242;7.956;2023-12-22T07:45:50;98830.13;;;5.63;100.00
5574;BME280;2563;52.242;7.956;2023-12-22T07:48:17;98820.88;;;5.61;100.00
5574;BME280;2563;52.242;7.956;2023-12-22T07:50:42;98814.00;;;5.63;100.00
5574;BME280;2563;52.242;7.956;2023-12-22T07:53:08;98811.38;;;5.64;100.00
5574;BME280;2563;52.242;7.956;2023-12-22T07:55:33;98814.59;;;5.69;100.00
5574;BME280;2563;52.242;7.956;2023-12-22T07:57:59;98814.44;;;5.75;100.00
5574;BME280;2563;52.242;7.956;2023-12-22T08:00:25;98822.94;;;5.74;100.00
5574;BME280;2563;52.242;7.956;2023-12-22T08:02:50;98816.19;;;5.73;100.00
5574;BME280;2563;52.242;7.956;2023-12-22T08:05:17;98823.06;;;5.71;100.00
5574;BME280;2563;52.242;7.956;2023-12-22T08:07:43;98821.19;;;5.76;100.00
5574;BME280;2563;52.242;7.956;2023-12-22T08:10:09;98817.81;;;5.76;100.00
5574;BME280;2563;52.242;7.956;2023-12-22T08:12:34;98808.28;;;5.81;100.00
5574;BME280;2563;52.242;7.956;2023-12-22T08:15:01;98804.00;;;5.82;100.00
5574;BME280;2563;52.242;7.956;2023-12-22T08:17:26;98780.78;;;5.89;100.00
5574;BME280;2563;52.242;7.956;2023-12-22T08:19:52;98796.03;;;5.91;100.00
5574;BME280;2563;52.242;7.956;2023-12-22T08:22:17;98781.72;;;5.87;100.00
5574;BME280;2563;52.242;7.956;2023-12-22T08:24:43;98773.06;;;5.91;100.00
5574;BME280;2563;52.242;7.956;2023-12-22T08:27:08;98776.31;;;5.96;100.00
5574;BME280;2563;52.242;7.956;2023-12-22T08:29:34;98781.34;;;5.99;100.00
5574;BME280;2563;52.242;7.956;2023-12-22T08:32:00;98779.47;;;6.04;100.00
5574;BME280;2563;52.242;7.956;2023-12-22T08:34:27;98776.91;;;6.04;100.00
5574;BME280;2563;52.242;7.956;2023-12-22T08:36:52;98776.78;;;6.07;100.00
5574;BME280;2563;52.242;7.956;2023-12-22T08:39:17;98792.94;;;6.08;100.00
5574;BME280;2563;52.242;7.956;2023-12-22T08:41:43;98786.97;;;6.09;100.00
5574;BME280;2563;52.242;7.956;2023-12-22T08:44:08;98766.47;;;6.10;100.00
5574;BME280;2563;52.242;7.956;2023-12-22T08:46:34;98753.69;;;6.10;100.00
5574;BME280;2563;52.242;7.956;2023-12-22T08:49:00;98767.25;;;6.12;100.00
5574;BME280;2563;52.242;7.956;2023-12-22T08:51:26;98747.63;;;6.13;100.00
5574;BME280;2563;52.242;7.956;2023-12-22T08:53:52;98741.63;;;6.15;100.00
5574;BME280;2563;52.242;7.956;2023-12-22T08:56:20;98732.28;;;6.14;100.00
5574;BME280;2563;52.242;7.956;2023-12-22T08:58:46;98717.78;;;6.15;100.00
5574;BME280;2563;52.242;7.956;2023-12-22T09:01:15;98735.72;;;6.13;100.00
5574;BME280;2563;52.242;7.956;2023-12-22T09:03:41;98724.63;;;6.14;100.00
5574;BME280;2563;52.242;7.956;2023-12-22T09:06:17;98717.72;;;6.16;100.00
5574;BME280;2563;52.242;7.956;2023-12-22T09:08:43;98701.47;;;6.19;100.00
5574;BME280;2563;52.242;7.956;2023-12-22T09:11:12;98713.94;;;6.27;100.00
5574;BME280;2563;52.242;7.956;2023-12-22T09:13:38;98727.50;;;6.29;100.00
5574;BME280;2563;52.242;7.956;2023-12-22T09:16:04;98724.94;;;6.29;100.00
5574;BME280;2563;52.242;7.956;2023-12-22T09:18:30;98735.94;;;6.31;100.00
5574;BME280;2563;52.242;7.956;2023-12-22T09:20:56;98716.63;;;6.24;100.00
5574;BME280;2563;52.242;7.956;2023-12-22T09:23:21;98711.56;;;6.22;100.00
5574;BME280;2563;52.242;7.956;2023-12-22T09:25:47;98709.16;;;6.17;100.00
5574;BME280;2563;52.242;7.956;2023-12-22T09:28:13;98709.28;;;6.14;100.00
5574;BME280;2563;52.242;7.956;2023-12-22T09:30:39;98707.56;;;6.15;100.00
5574;BME280;2563;52.242;7.956;2023-12-22T09:33:04;98690.41;;;6.18;100.00
5574;BME280;2563;52.242;7.956;2023-12-22T09:35:29;98676.03;;;6.16;100.00
5574;BME280;2563;52.242;7.956;2023-12-22T09:37:55;98673.53;;;6.14;100.00
5574;BME280;2563;52.242;7.956;2023-12-22T09:40:20;98665.00;;;6.15;100.00
5574;BME280;2563;52.242;7.956;2023-12-22T09:42:47;98637.78;;;6.14;100.00
5574;BME280;2563;52.242;7.956;2023-12-22T09:45:16;98636.94;;;6.14;100.00
5574;BME280;2563;52.242;7.956;2023-12-22T09:47:42;98598.69;;;6.12;100.00
5574;BME280;2563;52.242;7.956;2023-12-22T09:50:09;98586.69;;;6.14;100.00
5574;BME280;2563;52.242;7.956;2023-12-22T09:52:35;98546.59;;;6.16;100.00
5574;BME280;2563;52.242;7.956;2023-12-22T09:55:01;98531.16;;;6.20;100.00
5574;BME280;2563;52.242;7.956;2023-12-22T09:57:29;98493.94;;;6.14;100.00
5574;BME280;2563;52.242;7.956;2023-12-22T09:59:55;98488.22;;;6.07;100.00
5574;BME280;2563;52.242;7.956;2023-12-22T10:02:21;98450.09;;;6.03;100.00
5574;BME280;2563;52.242;7.956;2023-12-22T10:04:47;98423.78;;;6.01;100.00
5574;BME280;2563;52.242;7.956;2023-12-22T10:07:14;98420.41;;;6.00;100.00
5574;BME280;2563;52.242;7.956;2023-12-22T10:09:40;98396.41;;;6.04;100.00
5574;BME280;2563;52.242;7.956;2023-12-22T10:12:09;98399.66;;;6.08;100.00
5574;BME280;2563;52.242;7.956;2023-12-22T10:14:37;98393.59;;;6.10;100.00
5574;BME280;2563;52.242;7.956;2023-12-22T10:17:04;98402.94;;;6.11;100.00
5574;BME280;2563;52.242;7.956;2023-12-22T10:19:30;98403.59;;;6.16;100.00
5574;BME280;2563;52.242;7.956;2023-12-22T10:21:55;98390.03;;;6.14;100.00
5574;BME280;2563;52.242;7.956;2023-12-22T10:24:37;98391.50;;;6.20;100.00
5574;BME280;2563;52.242;7.956;2023-12-22T10:27:02;98388.88;;;6.22;100.00
5574;BME280;2563;52.242;7.956;2023-12-22T10:29:28;98393.03;;;6.24;100.00
5574;BME280;2563;52.242;7.956;2023-12-22T10:31:54;98393.03;;;6.24;100.00
5574;BME280;2563;52.242;7.956;2023-12-22T10:34:19;98394.63;;;6.27;100.00
5574;BME280;2563;52.242;7.956;2023-12-22T10:36:45;98392.91;;;6.27;100.00
5574;BME280;2563;52.242;7.956;2023-12-22T10:39:11;98402.31;;;6.27;100.00
5574;BME280;2563;52.242;7.956;2023-12-22T10:41:36;98405.81;;;6.24;100.00
5574;BME280;2563;52.242;7.956;2023-12-22T10:44:02;98410.88;;;6.26;100.00
5574;BME280;2563;52.242;7.956;2023-12-22T10:46:30;98410.72;;;6.29;100.00
5574;BME280;2563;52.242;7.956;2023-12-22T10:48:58;98413.09;;;6.33;100.00
5574;BME280;2563;52.242;7.956;2023-12-22T10:51:24;98410.34;;;6.38;100.00
5574;BME280;2563;52.242;7.956;2023-12-22T10:53:50;98418.03;;;6.38;100.00
5574;BME280;2563;52.242;7.956;2023-12-22T10:56:16;98419.75;;;6.37;100.00
5574;BME280;2563;52.242;7.956;2023-12-22T10:58:42;98418.94;;;6.37;100.00
5574;BME280;2563;52.242;7.956;2023-12-22T11:01:08;98407.03;;;6.36;100.00
5574;BME280;2563;52.242;7.956;2023-12-22T11:03:35;98404.28;;;6.41;100.00
5574;BME280;2563;52.242;7.956;2023-12-22T11:06:04;98392.44;;;6.39;100.00
5574;BME280;2563;52.242;7.956;2023-12-22T11:08:33;98399.31;;;6.37;100.00
5574;BME280;2563;52.242;7.956;2023-12-22T11:11:04;98376.38;;;6.36;100.00
5574;BME280;2563;52.242;7.956;2023-12-22T11:13:35;98370.50;;;6.34;100.00
5574;BME280;2563;52.242;7.956;2023-12-22T11:16:02;98384.94;;;6.35;100.00
5574;BME280;2563;52.242;7.956;2023-12-22T11:18:28;98387.19;;;6.43;100.00
5574;BME280;2563;52.242;7.956;2023-12-22T11:20:55;98376.13;;;6.42;100.00
5574;BME280;2563;52.242;7.956;2023-12-22T11:23:23;98380.47;;;6.40;100.00
5574;BME280;2563;52.242;7.956;2023-12-22T11:25:50;98396.50;;;6.44;100.00
5574;BME280;2563;52.242;7.956;2023-12-22T11:28:19;98384.81;;;6.38;100.00
5574;BME280;2563;52.242;7.956;2023-12-22T11:30:47;98371.13;;;6.39;100.00
5574;BME280;2563;52.242;7.956;2023-12-22T11:33:15;98365.28;;;6.37;100.00
5574;BME280;2563;52.242;7.956;2023-12-22T11:35:42;98359.25;;;6.38;100.00
5574;BME280;2563;52.242;7.956;2023-12-22T11:38:10;98355.06;;;6.37;100.00
5574;BME280;2563;52.242;7.956;2023-12-22T11:40:36;98344.06;;;6.35;100.00
5574;BME280;2563;52.242;7.956;2023-12-22T11:43:02;98335.38;;;6.39;100.00
5574;BME280;2563;52.242;7.956;2023-12-22T11:45:30;98337.03;;;6.40;100.00
5574;BME280;2563;52.242;7.956;2023-12-22T11:47:56;98330.38;;;6.36;100.00
5574;BME280;2563;52.242;7.956;2023-12-22T11:50:29;98341.53;;;6.35;100.00
5574;BME280;2563;52.242;7.956;2023-12-22T11:53:17;98348.03;;;6.42;100.00
5574;BME280;2563;52.242;7.956;2023-12-22T12:01:01;98356.66;;;6.39;100.00
5574;BME280;2563;52.242;7.956;2023-12-22T12:03:27;98369.28;;;6.43;100.00
5574;BME280;2563;52.242;7.956;2023-12-22T12:08:37;98384.44;;;6.47;100.00
5574;BME280;2563;52.242;7.956;2023-12-22T12:11:02;98381.78;;;6.49;100.00
5574;BME280;2563;52.242;7.956;2023-12-22T12:13:30;98383.47;;;6.50;100.00
5574;BME280;2563;52.242;7.956;2023-12-22T12:15:58;98387.75;;;6.49;100.00
5574;BME280;2563;52.242;7.956;2023-12-22T12:18:27;98408.75;;;6.56;100.00
5574;BME280;2563;52.242;7.956;2023-12-22T12:20:54;98410.63;;;6.52;100.00
5574;BME280;2563;52.242;7.956;2023-12-22T12:23:19;98425.81;;;6.55;100.00
5574;BME280;2563;52.242;7.956;2023-12-22T12:25:44;98423.34;;;6.54;100.00
5574;BME280;2563;52.242;7.956;2023-12-22T12:28:10;98429.97;;;6.58;100.00
5574;BME280;2563;52.242;7.956;2023-12-22T12:30:37;98424.78;;;6.59;100.00
5574;BME280;2563;52.242;7.956;2023-12-22T12:33:07;98424.78;;;6.59;100.00
5574;BME280;2563;52.242;7.956;2023-12-22T12:35:33;98426.34;;;6.64;100.00
5574;BME280;2563;52.242;7.956;2023-12-22T12:37:59;98443.31;;;6.65;100.00
5574;BME280;2563;52.242;7.956;2023-12-22T12:40:24;98422.19;;;6.61;100.00
5574;BME280;2563;52.242;7.956;2023-12-22T12:42:53;98437.44;;;6.63;100.00
5574;BME280;2563;52.242;7.956;2023-12-22T12:45:22;98437.38;;;6.64;100.00
5574;BME280;2563;52.242;7.956;2023-12-22T12:47:59;98449.06;;;6.70;100.00
5574;BME280;2563;52.242;7.956;2023-12-22T12:50:25;98451.50;;;6.73;100.00
5574;BME280;2563;52.242;7.956;2023-12-22T12:52:54;98460.81;;;6.74;100.00
5574;BME280;2563;52.242;7.956;2023-12-22T12:55:24;98470.28;;;6.72;100.00
5574;BME280;2563;52.242;7.956;2023-12-22T12:57:50;98487.41;;;6.70;100.00
5574;BME280;2563;52.242;7.956;2023-12-22T13:00:26;98476.34;;;6.69;100.00
5574;BME280;2563;52.242;7.956;2023-12-22T13:02:54;98482.28;;;6.70;100.00
5574;BME280;2563;52.242;7.956;2023-12-22T13:05:23;98486.63;;;6.68;100.00
5574;BME280;2563;52.242;7.956;2023-12-22T13:07:49;98490.88;;;6.69;100.00
5574;BME280;2563;52.242;7.956;2023-12-22T13:10:24;98478.97;;;6.68;100.00
5574;BME280;2563;52.242;7.956;2023-12-22T13:12:51;98472.06;;;6.70;100.00
5574;BME280;2563;52.242;7.956;2023-12-22T13:15:20;98473.75;;;6.71;100.00
5574;BME280;2563;52.242;7.956;2023-12-22T13:17:46;98490.03;;;6.68;100.00
5574;BME280;2563;52.242;7.956;2023-12-22T13:20:11;98493.47;;;6.67;100.00
5574;BME280;2563;52.242;7.956;2023-12-22T13:22:37;98499.41;;;6.68;100.00
5574;BME280;2563;52.242;7.956;2023-12-22T13:25:03;98498.84;;;6.61;100.00
5574;BME280;2563;52.242;7.956;2023-12-22T13:27:29;98504.03;;;6.59;100.00
5574;BME280;2563;52.242;7.956;2023-12-22T13:29:54;98489.66;;;6.57;100.00